createdAt,value
2018-07-19T00:01:33.416Z,100824.67
2018-07-19T00:04:02.593Z,100832.24
2018-07-19T00:06:31.729Z,100832.31
2018-07-19T00:11:29.090Z,100829.84
2018-07-19T00:13:58.690Z,100829.06
2018-07-19T00:16:27.852Z,100832.70
2018-07-19T00:18:57.003Z,100831.05
2018-07-19T00:21:26.143Z,100836.39
2018-07-19T00:23:55.249Z,100836.06
2018-07-19T00:26:24.397Z,100835.81
2018-07-19T00:28:53.644Z,100837.69
2018-07-19T00:31:22.845Z,100841.70
2018-07-19T00:33:52.014Z,100844.44
2018-07-19T00:36:21.137Z,100842.77
2018-07-19T00:38:50.313Z,100841.02
2018-07-19T00:41:19.470Z,100840.56
2018-07-19T00:43:48.607Z,100850.29
2018-07-19T00:46:17.827Z,100845.95
2018-07-19T00:48:46.955Z,100840.37
2018-07-19T00:51:16.116Z,100852.89
2018-07-19T00:53:45.257Z,100841.03
2018-07-19T00:56:14.407Z,100845.46
2018-07-19T00:58:46.440Z,100838.87
2018-07-19T01:01:15.637Z,100842.48
2018-07-19T01:03:44.827Z,100834.92
2018-07-19T01:06:14.040Z,100834.15
2018-07-19T01:08:43.185Z,100830.27
2018-07-19T01:11:12.331Z,100832.95
2018-07-19T01:13:41.616Z,100831.23
2018-07-19T01:16:10.762Z,100829.45
2018-07-19T01:18:39.966Z,100828.16
2018-07-19T01:21:09.126Z,100832.61
2018-07-19T01:23:38.270Z,100831.41
2018-07-19T01:26:07.500Z,100835.50
2018-07-19T01:28:36.687Z,100831.22
2018-07-19T01:31:05.816Z,100827.34
2018-07-19T01:33:34.938Z,100830.44
2018-07-19T01:36:04.144Z,100830.88
2018-07-19T01:38:33.399Z,100830.44
2018-07-19T01:42:18.430Z,100834.41
2018-07-19T01:44:47.645Z,100838.43
2018-07-19T01:47:16.802Z,100836.29
2018-07-19T01:49:46.610Z,100842.17
2018-07-19T01:52:15.937Z,100836.06
2018-07-19T01:54:45.170Z,100842.25
2018-07-19T01:57:15.247Z,100841.86
2018-07-19T01:59:45.050Z,100840.56
2018-07-19T02:02:14.451Z,100842.39
2018-07-19T02:04:43.942Z,100840.73
2018-07-19T02:07:13.144Z,100844.77
2018-07-19T02:09:42.533Z,100844.41
2018-07-19T02:12:11.679Z,100838.75
2018-07-19T02:14:41.011Z,100832.61
2018-07-19T02:17:10.149Z,100837.48
2018-07-19T02:19:39.298Z,100835.78
2018-07-19T02:22:08.466Z,100837.10
2018-07-19T02:24:37.725Z,100827.86
2018-07-19T02:27:07.715Z,100837.14
2018-07-19T02:29:37.138Z,100839.42
2018-07-19T02:32:06.323Z,100839.92
2018-07-19T02:34:35.455Z,100839.52
2018-07-19T02:37:04.590Z,100843.11
2018-07-19T02:39:33.753Z,100842.34
2018-07-19T02:42:02.891Z,100839.74
2018-07-19T02:44:32.065Z,100838.04
2018-07-19T02:47:01.206Z,100839.43
2018-07-19T02:49:30.403Z,100847.86
2018-07-19T02:51:59.542Z,100843.90
2018-07-19T02:54:28.701Z,100845.24
2018-07-19T02:56:57.891Z,100848.83
2018-07-19T02:59:27.050Z,100843.61
2018-07-19T03:01:56.204Z,100845.84
2018-07-19T03:04:25.339Z,100847.69
2018-07-19T03:06:54.519Z,100848.14
2018-07-19T03:09:23.639Z,100845.07
2018-07-19T03:11:52.762Z,100851.72
2018-07-19T03:14:21.911Z,100845.62
2018-07-19T03:16:51.140Z,100854.97
2018-07-19T03:19:20.318Z,100855.45
2018-07-19T03:21:49.485Z,100850.70
2018-07-19T03:24:18.634Z,100847.25
2018-07-19T03:26:47.883Z,100847.63
2018-07-19T03:29:17.071Z,100855.94
2018-07-19T03:31:46.229Z,100845.78
2018-07-19T03:34:15.478Z,100851.48
2018-07-19T03:36:44.686Z,100847.06
2018-07-19T03:39:13.817Z,100848.73
2018-07-19T03:41:42.963Z,100847.80
2018-07-19T03:44:12.088Z,100843.83
2018-07-19T03:46:41.236Z,100850.80
2018-07-19T03:49:10.393Z,100855.97
2018-07-19T03:51:39.638Z,100852.41
2018-07-19T03:54:08.845Z,100848.42
2018-07-19T03:56:38.030Z,100844.81
2018-07-19T03:59:07.186Z,100852.20
2018-07-19T04:01:36.342Z,100847.72
2018-07-19T04:04:05.658Z,100845.88
2018-07-19T04:06:34.929Z,100847.52
2018-07-19T04:09:05.892Z,100852.69
2018-07-19T04:11:35.113Z,100854.45
2018-07-19T04:14:04.816Z,100848.92
2018-07-19T04:16:33.992Z,100846.28
2018-07-19T04:19:03.147Z,100849.72
2018-07-19T04:21:32.331Z,100846.08
2018-07-19T04:24:01.552Z,100855.46
2018-07-19T04:26:30.822Z,100851.33
2018-07-19T04:29:00.037Z,100845.80
2018-07-19T04:31:29.257Z,100850.64
2018-07-19T04:33:58.421Z,100852.83
2018-07-19T04:36:27.602Z,100848.64
2018-07-19T04:38:56.785Z,100851.57
2018-07-19T04:41:26.074Z,100848.27
2018-07-19T04:43:55.290Z,100846.00
2018-07-19T04:46:24.529Z,100848.33
2018-07-19T04:48:53.754Z,100849.16
2018-07-19T04:51:23.026Z,100850.55
2018-07-19T04:53:52.245Z,100850.84
2018-07-19T04:56:21.493Z,100857.30
2018-07-19T04:58:50.621Z,100858.66
2018-07-19T05:01:19.840Z,100865.69
2018-07-19T05:03:48.811Z,100857.84
2018-07-19T05:06:17.997Z,100863.66
2018-07-19T05:08:47.149Z,100874.33
2018-07-19T05:11:16.330Z,100869.14
2018-07-19T05:13:45.491Z,100867.72
2018-07-19T05:16:14.667Z,100869.70
2018-07-19T05:18:43.814Z,100871.71
2018-07-19T05:21:12.952Z,100868.75
2018-07-19T05:23:42.134Z,100872.23
2018-07-19T05:26:11.359Z,100872.81
2018-07-19T05:28:40.493Z,100873.02
2018-07-19T05:31:09.653Z,100877.59
2018-07-19T05:33:38.764Z,100872.58
2018-07-19T05:36:08.577Z,100873.84
2018-07-19T05:38:37.725Z,100882.16
2018-07-19T05:41:07.540Z,100879.20
2018-07-19T05:43:36.818Z,100883.37
2018-07-19T05:46:05.960Z,100888.44
2018-07-19T05:48:35.109Z,100887.93
2018-07-19T05:51:04.282Z,100872.75
2018-07-19T05:53:33.425Z,100875.64
2018-07-19T05:56:02.518Z,100873.00
2018-07-19T05:58:31.623Z,100869.80
2018-07-19T06:01:00.757Z,100878.11
2018-07-19T06:03:29.975Z,100869.66
2018-07-19T06:05:59.062Z,100872.67
2018-07-19T06:08:28.286Z,100874.83
2018-07-19T06:10:57.560Z,100875.97
2018-07-19T06:13:26.762Z,100872.42
2018-07-19T06:15:55.965Z,100866.42
2018-07-19T06:18:25.093Z,100869.25
2018-07-19T06:20:54.239Z,100868.39
2018-07-19T06:23:23.375Z,100864.98
2018-07-19T06:25:52.521Z,100871.86
2018-07-19T06:28:21.675Z,100874.69
2018-07-19T06:30:50.937Z,100876.39
2018-07-19T06:33:20.409Z,100883.53
2018-07-19T06:35:49.830Z,100880.91
2018-07-19T06:38:18.991Z,100873.89
2018-07-19T06:40:48.111Z,100875.08
2018-07-19T06:43:17.324Z,100881.45
2018-07-19T06:45:46.451Z,100885.13
2018-07-19T06:48:15.614Z,100878.48
2018-07-19T06:50:45.027Z,100874.30
2018-07-19T06:53:14.612Z,100879.59
2018-07-19T06:55:43.738Z,100881.28
2018-07-19T06:58:12.879Z,100889.28
2018-07-19T07:00:42.006Z,100885.19
2018-07-19T07:03:11.218Z,100887.43
2018-07-19T07:05:40.356Z,100886.27
2018-07-19T07:08:09.554Z,100897.67
2018-07-19T07:10:38.705Z,100900.17
2018-07-19T07:13:07.939Z,100896.06
2018-07-19T07:15:37.115Z,100900.06
2018-07-19T07:18:06.656Z,100895.50
2018-07-19T07:20:36.805Z,100891.59
2018-07-19T07:23:06.526Z,100894.70
2018-07-19T07:25:51.139Z,100894.47
2018-07-19T07:28:21.974Z,100905.20
2018-07-19T07:30:51.065Z,100902.38
2018-07-19T07:33:20.513Z,100906.16
2018-07-19T07:35:50.025Z,100907.03
2018-07-19T07:38:19.811Z,100909.41
2018-07-19T07:40:49.342Z,100911.33
2018-07-19T07:43:18.539Z,100915.32
2018-07-19T07:45:47.757Z,100915.79
2018-07-19T07:48:16.946Z,100906.80
2018-07-19T07:50:46.161Z,100902.60
2018-07-19T07:53:15.342Z,100916.13
2018-07-19T07:55:44.560Z,100914.33
2018-07-19T07:58:13.718Z,100918.67
2018-07-19T08:00:42.939Z,100918.13
2018-07-19T08:03:12.137Z,100915.70
2018-07-19T08:05:41.271Z,100918.31
2018-07-19T08:08:10.297Z,100922.84
2018-07-19T08:10:39.434Z,100926.27
2018-07-19T08:13:08.622Z,100932.34
2018-07-19T08:15:37.938Z,100925.18
2018-07-19T08:18:07.117Z,100922.49
2018-07-19T08:20:36.356Z,100924.09
2018-07-19T08:23:05.721Z,100924.84
2018-07-19T08:25:34.845Z,100921.94
2018-07-19T08:28:04.022Z,100921.67
2018-07-19T08:30:33.172Z,100923.06
2018-07-19T08:33:02.336Z,100919.23
2018-07-19T08:35:31.438Z,100923.03
2018-07-19T08:38:00.588Z,100927.25
2018-07-19T08:40:29.778Z,100925.03
2018-07-19T08:42:59.649Z,100925.47
2018-07-19T08:45:28.783Z,100935.45
2018-07-19T08:47:57.913Z,100932.15
2018-07-19T08:50:27.060Z,100937.08
2018-07-19T08:52:56.198Z,100934.06
2018-07-19T08:55:25.591Z,100937.66
2018-07-19T08:57:55.703Z,100930.29
2018-07-19T09:00:24.894Z,100943.77
2018-07-19T09:02:54.066Z,100937.38
2018-07-19T09:05:23.218Z,100945.75
2018-07-19T09:07:52.343Z,100941.09
2018-07-19T09:10:21.536Z,100945.20
2018-07-19T09:12:50.680Z,100941.41
2018-07-19T09:15:19.786Z,100944.75
2018-07-19T09:17:48.944Z,100944.55
2018-07-19T09:20:18.085Z,100945.17
2018-07-19T09:22:47.230Z,100954.50
2018-07-19T09:25:16.349Z,100949.69
2018-07-19T09:27:45.510Z,100948.77
2018-07-19T09:30:14.657Z,100949.17
2018-07-19T09:32:43.920Z,100954.20
2018-07-19T09:35:13.075Z,100956.06
2018-07-19T09:37:42.228Z,100950.47
2018-07-19T09:40:11.412Z,100948.33
2018-07-19T09:42:40.565Z,100947.14
2018-07-19T09:45:09.751Z,100951.28
2018-07-19T09:47:38.863Z,100949.13
2018-07-19T09:50:08.866Z,100944.73
2018-07-19T09:52:38.050Z,100944.89
2018-07-19T09:55:07.200Z,100951.69
2018-07-19T09:57:37.102Z,100948.83
2018-07-19T10:00:06.606Z,100951.09
2018-07-19T10:02:35.786Z,100947.96
2018-07-19T10:05:05.294Z,100949.70
2018-07-19T10:07:34.490Z,100959.98
2018-07-19T10:10:03.735Z,100953.70
2018-07-19T10:12:32.828Z,100949.55
2018-07-19T10:15:01.982Z,100960.45
2018-07-19T10:17:32.031Z,100954.18
2018-07-19T10:20:01.191Z,100959.67
2018-07-19T10:22:30.318Z,100955.14
2018-07-19T10:25:01.133Z,100955.95
2018-07-19T10:27:30.251Z,100955.76
2018-07-19T10:29:59.404Z,100954.77
2018-07-19T10:32:28.715Z,100960.51
2018-07-19T10:34:57.811Z,100958.23
2018-07-19T10:37:27.042Z,100961.82
2018-07-19T10:39:56.224Z,100958.68
2018-07-19T10:42:26.398Z,100964.64
2018-07-19T10:44:55.378Z,100959.29
2018-07-19T10:47:24.568Z,100958.22
2018-07-19T10:49:53.829Z,100957.42
2018-07-19T10:52:23.030Z,100954.72
2018-07-19T10:54:52.119Z,100954.63
2018-07-19T10:57:21.395Z,100956.97
2018-07-19T10:59:50.518Z,100959.11
2018-07-19T11:02:19.654Z,100958.59
2018-07-19T11:04:48.741Z,100954.78
2018-07-19T11:07:17.853Z,100956.53
2018-07-19T11:09:47.581Z,100961.21
2018-07-19T11:12:16.916Z,100954.84
2018-07-19T11:14:46.043Z,100962.48
2018-07-19T11:17:15.151Z,100961.33
2018-07-19T11:19:44.274Z,100963.92
2018-07-19T11:22:13.515Z,100964.96
2018-07-19T11:24:42.662Z,100962.59
2018-07-19T11:27:17.882Z,100960.74
2018-07-19T11:29:47.048Z,100964.78
2018-07-19T11:32:16.436Z,100962.37
2018-07-19T11:34:45.728Z,100961.17
2018-07-19T11:37:15.023Z,100960.25
2018-07-19T11:39:44.414Z,100966.23
2018-07-19T11:42:13.564Z,100965.45
2018-07-19T11:44:42.850Z,100958.48
2018-07-19T11:47:11.957Z,100961.38
2018-07-19T11:49:41.113Z,100960.23
2018-07-19T11:52:10.263Z,100960.05
2018-07-19T11:54:39.468Z,100960.98
2018-07-19T11:57:08.600Z,100957.09
2018-07-19T11:59:37.700Z,100953.69
2018-07-19T12:02:07.439Z,100961.17
2018-07-19T12:04:36.549Z,100958.77
2018-07-19T12:07:05.823Z,100949.27
2018-07-19T12:09:34.955Z,100950.83
2018-07-19T12:12:04.154Z,100952.58
2018-07-19T12:14:33.253Z,100946.63
2018-07-19T12:17:02.410Z,100942.69
2018-07-19T12:19:31.546Z,100941.20
2018-07-19T12:22:00.764Z,100943.58
2018-07-19T12:24:29.883Z,100941.09
2018-07-19T12:26:59.027Z,100938.22
2018-07-19T12:29:28.134Z,100942.77
2018-07-19T12:31:57.449Z,100941.70
2018-07-19T12:34:26.635Z,100945.58
2018-07-19T12:36:55.938Z,100938.06
2018-07-19T12:39:25.008Z,100941.77
2018-07-19T12:41:54.141Z,100939.95
2018-07-19T12:44:23.282Z,100940.27
2018-07-19T12:46:52.625Z,100936.97
2018-07-19T12:49:22.298Z,100952.95
2018-07-19T12:51:51.423Z,100946.70
2018-07-19T12:54:20.550Z,100955.81
2018-07-19T12:56:49.804Z,100952.73
2018-07-19T12:59:18.927Z,100953.79
2018-07-19T13:01:48.132Z,100957.17
2018-07-19T13:04:17.193Z,100949.42
2018-07-19T13:06:46.685Z,100963.74
2018-07-19T13:09:15.808Z,100964.86
2018-07-19T13:11:45.070Z,100957.88
2018-07-19T13:14:15.257Z,100954.09
2018-07-19T13:16:44.561Z,100962.56
2018-07-19T13:19:13.696Z,100947.27
2018-07-19T13:21:43.473Z,100951.28
2018-07-19T13:24:12.827Z,100950.08
2018-07-19T13:26:41.913Z,100946.88
2018-07-19T13:29:11.067Z,100949.06
2018-07-19T13:31:40.822Z,100948.95
2018-07-19T13:34:10.014Z,100950.61
2018-07-19T13:36:39.153Z,100940.48
2018-07-19T13:39:09.630Z,100942.27
2018-07-19T13:41:38.782Z,100944.28
2018-07-19T13:44:07.917Z,100932.71
2018-07-19T13:46:37.069Z,100932.27
2018-07-19T13:49:06.455Z,100932.22
2018-07-19T13:51:35.562Z,100917.91
2018-07-19T13:54:36.608Z,100922.41
2018-07-19T13:57:05.854Z,100914.55
2018-07-19T13:59:34.979Z,100912.64
2018-07-19T14:02:04.551Z,100915.00
2018-07-19T14:04:33.697Z,100911.02
2018-07-19T14:07:02.814Z,100910.23
2018-07-19T14:09:31.939Z,100903.22
2018-07-19T14:12:01.057Z,100899.58
2018-07-19T14:14:30.210Z,100896.27
2018-07-19T14:16:59.393Z,100894.98
2018-07-19T14:19:28.564Z,100902.30
2018-07-19T14:21:57.749Z,100900.39
2018-07-19T14:24:26.871Z,100902.30
2018-07-19T14:26:56.030Z,100897.75
2018-07-19T14:29:25.342Z,100897.19
2018-07-19T14:31:54.476Z,100893.55
2018-07-19T14:34:23.642Z,100902.27
2018-07-19T14:36:52.947Z,100897.41
2018-07-19T14:39:22.099Z,100889.78
2018-07-19T14:41:51.258Z,100887.09
2018-07-19T14:44:20.429Z,100889.61
2018-07-19T14:46:49.597Z,100886.56
2018-07-19T14:49:18.709Z,100887.09
2018-07-19T14:51:47.904Z,100882.10
2018-07-19T14:54:17.075Z,100880.97
2018-07-19T14:56:46.225Z,100880.29
2018-07-19T14:59:15.370Z,100874.73
2018-07-19T15:01:44.524Z,100874.34
2018-07-19T15:04:13.714Z,100872.33
2018-07-19T15:06:42.862Z,100873.38
2018-07-19T15:09:12.821Z,100874.13
2018-07-19T15:11:42.013Z,100872.21
2018-07-19T15:14:11.145Z,100870.58
2018-07-19T15:16:40.321Z,100872.01
2018-07-19T15:19:09.455Z,100867.30
2018-07-19T15:21:38.590Z,100861.39
2018-07-19T15:24:07.733Z,100859.38
2018-07-19T15:26:37.488Z,100861.83
2018-07-19T15:29:06.641Z,100853.23
2018-07-19T15:31:35.818Z,100853.77
2018-07-19T15:34:05.006Z,100855.53
2018-07-19T15:36:34.189Z,100851.12
2018-07-19T15:39:03.310Z,100853.28
2018-07-19T15:41:32.522Z,100845.69
2018-07-19T15:44:01.658Z,100850.78
2018-07-19T15:46:30.870Z,100851.53
2018-07-19T15:49:00.071Z,100849.00
2018-07-19T15:51:29.247Z,100846.92
2018-07-19T15:53:58.494Z,100848.34
2018-07-19T15:56:27.630Z,100846.48
2018-07-19T15:58:56.965Z,100842.94
2018-07-19T16:01:26.128Z,100844.43
2018-07-19T16:03:55.301Z,100838.59
2018-07-19T16:06:24.403Z,100836.41
2018-07-19T16:08:53.592Z,100836.94
2018-07-19T16:11:22.743Z,100841.69
2018-07-19T16:13:51.981Z,100844.38
2018-07-19T16:16:21.229Z,100838.09
2018-07-19T16:18:50.448Z,100839.11
2018-07-19T16:21:19.711Z,100840.92
2018-07-19T16:23:48.985Z,100837.20
2018-07-19T16:26:18.210Z,100833.42
2018-07-19T16:28:47.326Z,100827.98
2018-07-19T16:31:16.483Z,100823.23
2018-07-19T16:33:45.717Z,100833.10
2018-07-19T16:36:15.060Z,100829.53
2018-07-19T16:38:44.202Z,100834.93
2018-07-19T16:41:13.321Z,100828.84
2018-07-19T16:43:42.549Z,100826.89
2018-07-19T16:46:11.694Z,100833.02
2018-07-19T16:48:40.821Z,100825.52
2018-07-19T16:51:10.008Z,100829.84
2018-07-19T16:53:39.178Z,100832.02
2018-07-19T16:56:08.665Z,100825.73
2018-07-19T16:58:37.847Z,100825.69
2018-07-19T17:01:07.245Z,100822.55
2018-07-19T17:03:36.812Z,100821.33
2018-07-19T17:06:06.012Z,100824.45
2018-07-19T17:08:35.150Z,100824.13
2018-07-19T17:11:04.339Z,100825.39
2018-07-19T17:13:33.470Z,100823.13
2018-07-19T17:16:03.567Z,100825.80
2018-07-19T17:18:33.366Z,100826.69
2018-07-19T17:21:02.504Z,100830.77
2018-07-19T17:23:31.650Z,100828.97
2018-07-19T17:26:00.743Z,100825.17
2018-07-19T17:28:29.876Z,100825.39
2018-07-19T17:30:59.005Z,100829.64
2018-07-19T17:33:28.711Z,100833.63
2018-07-19T17:35:57.893Z,100826.94
2018-07-19T17:38:27.428Z,100836.59
2018-07-19T17:40:56.741Z,100836.12
2018-07-19T17:43:26.055Z,100844.03
2018-07-19T17:45:55.235Z,100844.02
2018-07-19T17:48:24.619Z,100846.21
2018-07-19T17:50:53.885Z,100847.86
2018-07-19T17:53:23.146Z,100847.91
2018-07-19T17:55:52.270Z,100847.45
2018-07-19T17:58:21.477Z,100857.72
2018-07-19T18:00:50.673Z,100855.02
2018-07-19T18:03:19.884Z,100859.02
2018-07-19T18:05:49.004Z,100862.03
2018-07-19T18:08:18.190Z,100863.33
2018-07-19T18:10:47.370Z,100869.12
2018-07-19T18:13:16.569Z,100865.10
2018-07-19T18:15:45.823Z,100866.86
2018-07-19T18:18:15.020Z,100879.72
2018-07-19T18:20:44.484Z,100870.31
2018-07-19T18:23:13.634Z,100872.98
2018-07-19T18:25:42.841Z,100877.42
2018-07-19T18:28:11.990Z,100877.35
2018-07-19T18:30:42.128Z,100879.45
2018-07-19T18:33:11.282Z,100878.06
2018-07-19T18:35:40.843Z,100878.45
2018-07-19T18:38:10.003Z,100888.14
2018-07-19T18:40:39.137Z,100884.92
2018-07-19T18:43:08.274Z,100889.70
2018-07-19T18:45:37.454Z,100891.78
2018-07-19T18:48:06.707Z,100892.61
2018-07-19T18:50:35.919Z,100893.26
2018-07-19T18:53:05.028Z,100894.02
2018-07-19T18:55:34.164Z,100898.75
2018-07-19T18:58:03.342Z,100897.37
2018-07-19T19:00:32.458Z,100899.46
2018-07-19T19:03:01.650Z,100900.64
2018-07-19T19:05:30.912Z,100902.31
2018-07-19T19:08:00.118Z,100903.86
2018-07-19T19:10:29.546Z,100905.47
2018-07-19T19:12:58.838Z,100911.92
2018-07-19T19:15:28.098Z,100912.03
2018-07-19T19:17:57.143Z,100911.44
2018-07-19T19:20:26.312Z,100912.73
2018-07-19T19:22:55.744Z,100916.09
2018-07-19T19:25:24.937Z,100918.16
2018-07-19T19:27:54.062Z,100921.97
2018-07-19T19:30:24.985Z,100929.34
2018-07-19T19:32:56.347Z,100926.86
2018-07-19T19:35:26.491Z,100932.39
2018-07-19T19:37:55.854Z,100930.42
2018-07-19T19:40:26.236Z,100931.09
2018-07-19T19:42:57.682Z,100939.70
2018-07-19T19:45:26.900Z,100930.97
2018-07-19T19:47:57.775Z,100932.43
2018-07-19T19:50:27.991Z,100940.16
2018-07-19T19:52:58.009Z,100935.17
2018-07-19T19:55:27.253Z,100934.12
2018-07-19T19:57:57.521Z,100936.90
2018-07-19T20:00:26.626Z,100932.17
2018-07-19T20:02:55.798Z,100938.05
2018-07-19T20:05:24.933Z,100931.53
2018-07-19T20:07:54.258Z,100930.40
2018-07-19T20:10:23.378Z,100933.67
2018-07-19T20:12:52.695Z,100932.08
2018-07-19T20:15:21.816Z,100932.72
2018-07-19T20:17:51.036Z,100924.87
2018-07-19T20:20:20.100Z,100937.73
2018-07-19T20:22:49.316Z,100938.22
2018-07-19T20:25:18.692Z,100933.93
2018-07-19T20:27:47.823Z,100940.22
2018-07-19T20:30:17.002Z,100935.55
2018-07-19T20:32:46.193Z,100942.75
2018-07-19T20:35:15.359Z,100935.77
2018-07-19T20:37:44.505Z,100938.52
2018-07-19T20:40:13.709Z,100932.38
2018-07-19T20:42:42.928Z,100936.78
2018-07-19T20:45:12.092Z,100926.66
2018-07-19T20:47:41.215Z,100928.58
2018-07-19T20:50:10.376Z,100930.05
2018-07-19T20:52:39.698Z,100924.50
2018-07-19T20:55:09.480Z,100925.02
2018-07-19T20:57:38.909Z,100926.03
2018-07-19T21:00:08.152Z,100931.56
2018-07-19T21:02:37.320Z,100926.53
2018-07-19T21:05:06.539Z,100932.02
2018-07-19T21:07:35.686Z,100933.48
2018-07-19T21:10:05.343Z,100930.47
2018-07-19T21:12:34.472Z,100936.31
2018-07-19T21:15:03.705Z,100931.05
2018-07-19T21:17:32.830Z,100934.16
2018-07-19T21:20:01.989Z,100938.16
2018-07-19T21:22:31.196Z,100933.80
2018-07-19T21:25:00.379Z,100936.44
2018-07-19T21:27:29.598Z,100926.75
2018-07-19T21:29:58.928Z,100934.82
2018-07-19T21:32:28.173Z,100930.97
2018-07-19T21:34:57.374Z,100929.38
2018-07-19T21:37:26.841Z,100928.16
2018-07-19T21:39:56.084Z,100925.58
2018-07-19T21:42:25.229Z,100928.73
2018-07-19T21:44:54.462Z,100929.25
2018-07-19T21:47:23.935Z,100928.87
2018-07-19T21:49:53.082Z,100926.42
2018-07-19T21:52:22.257Z,100924.81
2018-07-19T21:54:51.379Z,100929.83
2018-07-19T21:57:20.676Z,100932.95
2018-07-19T21:59:49.888Z,100934.30
2018-07-19T22:02:19.064Z,100931.23
2018-07-19T22:04:48.174Z,100933.03
2018-07-19T22:07:17.294Z,100925.13
2018-07-19T22:09:46.473Z,100932.70
2018-07-19T22:12:15.659Z,100930.95
2018-07-19T22:14:44.931Z,100928.83
2018-07-19T22:17:14.074Z,100928.45
2018-07-19T22:19:43.605Z,100932.56
2018-07-19T22:22:12.839Z,100934.83
2018-07-19T22:24:41.961Z,100930.48
2018-07-19T22:27:11.057Z,100934.50
2018-07-19T22:29:40.459Z,100930.62
2018-07-19T22:32:09.762Z,100934.20
2018-07-19T22:34:38.957Z,100936.03
2018-07-19T22:37:08.066Z,100933.48
2018-07-19T22:39:37.346Z,100937.50
2018-07-19T22:42:06.559Z,100941.11
2018-07-19T22:44:35.673Z,100937.60
2018-07-19T22:47:04.809Z,100943.78
2018-07-19T22:49:33.936Z,100945.11
2018-07-19T22:52:03.125Z,100948.70
2018-07-19T22:54:32.245Z,100953.12
2018-07-19T22:57:01.439Z,100954.02
2018-07-19T22:59:30.712Z,100954.03
2018-07-19T23:02:00.035Z,100958.38
2018-07-19T23:04:29.222Z,100946.00
2018-07-19T23:06:58.473Z,100951.72
2018-07-19T23:09:27.599Z,100951.28
2018-07-19T23:11:56.818Z,100958.75
2018-07-19T23:14:26.164Z,100958.83
2018-07-19T23:16:55.399Z,100952.76
2018-07-19T23:19:24.551Z,100955.48
2018-07-19T23:21:53.725Z,100953.41
2018-07-19T23:24:22.891Z,100960.09
2018-07-19T23:26:52.053Z,100951.41
2018-07-19T23:29:21.221Z,100952.37
2018-07-19T23:31:50.384Z,100961.28
2018-07-19T23:34:19.581Z,100955.19
2018-07-19T23:36:56.262Z,100954.38
2018-07-19T23:39:29.045Z,100958.00
2018-07-19T23:42:01.514Z,100957.20
2018-07-19T23:44:34.452Z,100954.22
2018-07-19T23:47:07.792Z,100956.03
2018-07-19T23:49:36.945Z,100949.02
2018-07-19T23:52:07.350Z,100947.27
2018-07-19T23:54:36.557Z,100947.72
2018-07-19T23:57:05.756Z,100953.02
2018-07-19T23:59:34.899Z,100943.41
